sensor_id;sensor_type;location;lat;lon;timestamp;pressure;altitude;pressure_sealevel;temperature;humidity
5966;BME280;3009;43.224;27.976;2023-02-04T00:00:31;100331.81;;;-0.79;100.00
5966;BME280;3009;43.224;27.976;2023-02-04T00:03:04;100329.34;;;-0.98;100.00
5966;BME280;3009;43.224;27.976;2023-02-04T00:05:33;100323.97;;;-1.15;100.00
5966;BME280;3009;43.224;27.976;2023-02-04T00:08:02;100325.34;;;-1.00;100.00
5966;BME280;3009;43.224;27.976;2023-02-04T00:10:32;100318.19;;;-0.76;100.00
5966;BME280;3009;43.224;27.976;2023-02-04T00:13:00;100308.31;;;-0.69;100.00
5966;BME280;3009;43.224;27.976;2023-02-04T00:15:28;100309.22;;;-0.63;100.00
5966;BME280;3009;43.224;27.976;2023-02-04T00:17:57;100302.09;;;-0.63;100.00
5966;BME280;3009;43.224;27.976;2023-02-04T00:20:25;100295.00;;;-0.62;100.00
5966;BME280;3009;43.224;27.976;2023-02-04T00:22:54;100291.25;;;-0.66;97.49
5966;BME280;3009;43.224;27.976;2023-02-04T00:25:24;100283.19;;;-0.60;95.50
5966;BME280;3009;43.224;27.976;2023-02-04T00:27:52;100287.84;;;-0.50;93.16
5966;BME280;3009;43.224;27.976;2023-02-04T00:30:21;100289.38;;;-0.54;92.76
5966;BME280;3009;43.224;27.976;2023-02-04T00:32:49;100276.28;;;-0.49;91.63
5966;BME280;3009;43.224;27.976;2023-02-04T00:35:22;100273.81;;;-0.56;90.98
5966;BME280;3009;43.224;27.976;2023-02-04T00:37:51;100273.69;;;-0.61;89.83
5966;BME280;3009;43.224;27.976;2023-02-04T00:40:19;100264.59;;;-0.53;90.10
5966;BME280;3009;43.224;27.976;2023-02-04T00:42:49;100268.00;;;-0.41;88.73
5966;BME280;3009;43.224;27.976;2023-02-04T00:45:17;100258.91;;;-0.16;85.03
5966;BME280;3009;43.224;27.976;2023-02-04T00:47:46;100255.63;;;-0.06;83.42
5966;BME280;3009;43.224;27.976;2023-02-04T00:50:15;100260.25;;;0.21;80.23
5966;BME280;3009;43.224;27.976;2023-02-04T00:52:43;100249.56;;;0.27;78.64
5966;BME280;3009;43.224;27.976;2023-02-04T00:55:12;100246.50;;;0.35;77.46
5966;BME280;3009;43.224;27.976;2023-02-04T00:57:42;100242.81;;;0.37;77.47
5966;BME280;3009;43.224;27.976;2023-02-04T01:00:15;100242.78;;;0.53;76.25
5966;BME280;3009;43.224;27.976;2023-02-04T01:02:44;100236.53;;;0.60;76.22
5966;BME280;3009;43.224;27.976;2023-02-04T01:05:12;100228.78;;;0.75;74.96
5966;BME280;3009;43.224;27.976;2023-02-04T01:07:41;100222.03;;;0.84;74.83
5966;BME280;3009;43.224;27.976;2023-02-04T01:10:10;100223.94;;;0.89;73.92
5966;BME280;3009;43.224;27.976;2023-02-04T01:12:39;100218.66;;;0.89;75.15
5966;BME280;3009;43.224;27.976;2023-02-04T01:15:08;100212.94;;;0.97;74.09
5966;BME280;3009;43.224;27.976;2023-02-04T01:17:38;100211.69;;;1.05;73.77
5966;BME280;3009;43.224;27.976;2023-02-04T01:20:08;100211.75;;;1.10;74.11
5966;BME280;3009;43.224;27.976;2023-02-04T01:22:36;100212.06;;;1.14;73.59
5966;BME280;3009;43.224;27.976;2023-02-04T01:25:05;100203.78;;;1.32;72.82
5966;BME280;3009;43.224;27.976;2023-02-04T01:27:35;100204.13;;;1.41;72.09
5966;BME280;3009;43.224;27.976;2023-02-04T01:30:04;100205.72;;;1.42;72.59
5966;BME280;3009;43.224;27.976;2023-02-04T01:32:32;100204.16;;;1.46;70.87
5966;BME280;3009;43.224;27.976;2023-02-04T01:35:02;100199.69;;;1.47;71.21
5966;BME280;3009;43.224;27.976;2023-02-04T01:37:30;100196.25;;;1.46;71.12
5966;BME280;3009;43.224;27.976;2023-02-04T01:39:59;100188.16;;;1.58;70.26
5966;BME280;3009;43.224;27.976;2023-02-04T01:42:27;100186.78;;;1.55;70.39
5966;BME280;3009;43.224;27.976;2023-02-04T01:44:55;100177.31;;;1.59;69.56
5966;BME280;3009;43.224;27.976;2023-02-04T01:47:23;100175.84;;;1.74;69.54
5966;BME280;3009;43.224;27.976;2023-02-04T01:49:53;100173.75;;;1.76;69.14
5966;BME280;3009;43.224;27.976;2023-02-04T01:52:23;100171.94;;;1.82;69.66
5966;BME280;3009;43.224;27.976;2023-02-04T01:54:52;100179.03;;;1.76;70.03
5966;BME280;3009;43.224;27.976;2023-02-04T01:57:20;100168.97;;;1.73;69.35
5966;BME280;3009;43.224;27.976;2023-02-04T01:59:50;100169.56;;;1.80;69.45
5966;BME280;3009;43.224;27.976;2023-02-04T02:02:39;100157.38;;;1.79;69.15
5966;BME280;3009;43.224;27.976;2023-02-04T02:05:09;100151.56;;;1.82;69.80
5966;BME280;3009;43.224;27.976;2023-02-04T02:07:40;100151.88;;;1.86;69.25
5966;BME280;3009;43.224;27.976;2023-02-04T02:10:10;100141.06;;;1.87;69.73
5966;BME280;3009;43.224;27.976;2023-02-04T02:12:40;100145.28;;;1.88;69.25
5966;BME280;3009;43.224;27.976;2023-02-04T02:15:10;100147.38;;;1.86;69.11
5966;BME280;3009;43.224;27.976;2023-02-04T02:17:38;100149.78;;;1.93;68.82
5966;BME280;3009;43.224;27.976;2023-02-04T02:20:08;100145.28;;;1.88;69.31
5966;BME280;3009;43.224;27.976;2023-02-04T02:22:43;100138.97;;;1.94;69.15
5966;BME280;3009;43.224;27.976;2023-02-04T02:25:18;100132.31;;;1.87;68.92
5966;BME280;3009;43.224;27.976;2023-02-04T02:27:46;100129.06;;;1.74;69.16
5966;BME280;3009;43.224;27.976;2023-02-04T02:30:15;100135.28;;;1.58;70.70
5966;BME280;3009;43.224;27.976;2023-02-04T02:32:46;100126.34;;;1.64;70.62
5966;BME280;3009;43.224;27.976;2023-02-04T02:35:15;100128.72;;;1.61;70.80
5966;BME280;3009;43.224;27.976;2023-02-04T02:37:43;100116.88;;;1.68;70.34
5966;BME280;3009;43.224;27.976;2023-02-04T02:40:12;100120.28;;;1.69;70.13
5966;BME280;3009;43.224;27.976;2023-02-04T02:42:44;100114.56;;;1.82;69.27
5966;BME280;3009;43.224;27.976;2023-02-04T02:45:19;100117.25;;;1.87;69.22
5966;BME280;3009;43.224;27.976;2023-02-04T02:47:49;100112.47;;;1.84;69.53
5966;BME280;3009;43.224;27.976;2023-02-04T02:50:20;100106.63;;;1.82;69.59
5966;BME280;3009;43.224;27.976;2023-02-04T02:52:49;100107.19;;;1.84;69.60
5966;BME280;3009;43.224;27.976;2023-02-04T02:55:19;100104.00;;;1.82;69.71
5966;BME280;3009;43.224;27.976;2023-02-04T02:57:49;100096.84;;;1.77;70.01
5966;BME280;3009;43.224;27.976;2023-02-04T03:00:20;100092.63;;;1.82;70.17
5966;BME280;3009;43.224;27.976;2023-02-04T03:02:55;100083.34;;;1.79;69.91
5966;BME280;3009;43.224;27.976;2023-02-04T03:05:24;100079.69;;;1.80;70.71
5966;BME280;3009;43.224;27.976;2023-02-04T03:07:53;100073.34;;;1.86;72.05
5966;BME280;3009;43.224;27.976;2023-02-04T03:10:21;100070.44;;;1.88;72.42
5966;BME280;3009;43.224;27.976;2023-02-04T03:12:51;100069.94;;;1.91;73.73
5966;BME280;3009;43.224;27.976;2023-02-04T03:15:19;100068.38;;;1.95;73.45
5966;BME280;3009;43.224;27.976;2023-02-04T03:17:47;100053.31;;;1.95;73.11
5966;BME280;3009;43.224;27.976;2023-02-04T03:20:18;100058.38;;;2.07;71.91
5966;BME280;3009;43.224;27.976;2023-02-04T03:22:46;100048.06;;;2.06;71.89
5966;BME280;3009;43.224;27.976;2023-02-04T03:25:14;100058.59;;;2.01;72.90
5966;BME280;3009;43.224;27.976;2023-02-04T03:27:43;100050.13;;;1.93;72.72
5966;BME280;3009;43.224;27.976;2023-02-04T03:30:12;100055.38;;;1.88;73.69
5966;BME280;3009;43.224;27.976;2023-02-04T03:32:40;100050.66;;;1.95;74.45
5966;BME280;3009;43.224;27.976;2023-02-04T03:35:09;100057.00;;;1.94;75.76
5966;BME280;3009;43.224;27.976;2023-02-04T03:37:37;100053.00;;;1.87;76.76
5966;BME280;3009;43.224;27.976;2023-02-04T03:40:06;100064.09;;;1.84;78.02
5966;BME280;3009;43.224;27.976;2023-02-04T03:42:34;100049.56;;;1.86;78.40
5966;BME280;3009;43.224;27.976;2023-02-04T03:45:02;100047.69;;;1.82;78.90
5966;BME280;3009;43.224;27.976;2023-02-04T03:47:32;100037.91;;;1.82;79.62
5966;BME280;3009;43.224;27.976;2023-02-04T03:50:00;100035.25;;;1.77;80.37
5966;BME280;3009;43.224;27.976;2023-02-04T03:52:29;100024.41;;;1.79;81.13
5966;BME280;3009;43.224;27.976;2023-02-04T03:54:57;100018.56;;;1.71;81.78
5966;BME280;3009;43.224;27.976;2023-02-04T03:57:25;100024.63;;;1.72;82.08
5966;BME280;3009;43.224;27.976;2023-02-04T03:59:54;100017.53;;;1.77;82.73
5966;BME280;3009;43.224;27.976;2023-02-04T04:02:22;100012.75;;;1.74;83.64
5966;BME280;3009;43.224;27.976;2023-02-04T04:04:52;100004.53;;;1.66;85.53
5966;BME280;3009;43.224;27.976;2023-02-04T04:07:20;99996.06;;;1.64;86.18
5966;BME280;3009;43.224;27.976;2023-02-04T04:09:48;99995.28;;;1.63;87.07
5966;BME280;3009;43.224;27.976;2023-02-04T04:12:16;99988.34;;;1.57;88.41
5966;BME280;3009;43.224;27.976;2023-02-04T04:14:44;99988.63;;;1.55;90.26
5966;BME280;3009;43.224;27.976;2023-02-04T04:17:12;99982.22;;;1.46;91.67
5966;BME280;3009;43.224;27.976;2023-02-04T04:19:41;99973.25;;;1.47;93.09
5966;BME280;3009;43.224;27.976;2023-02-04T04:22:12;99973.78;;;1.44;94.25
5966;BME280;3009;43.224;27.976;2023-02-04T04:24:40;99970.88;;;1.40;95.06
5966;BME280;3009;43.224;27.976;2023-02-04T04:27:08;99958.69;;;1.39;95.52
5966;BME280;3009;43.224;27.976;2023-02-04T04:29:36;99951.03;;;1.43;95.68
5966;BME280;3009;43.224;27.976;2023-02-04T04:32:05;99952.13;;;1.42;95.97
5966;BME280;3009;43.224;27.976;2023-02-04T04:34:35;99941.25;;;1.38;96.32
5966;BME280;3009;43.224;27.976;2023-02-04T04:37:03;99950.00;;;1.39;96.08
5966;BME280;3009;43.224;27.976;2023-02-04T04:39:33;99940.47;;;1.38;96.81
5966;BME280;3009;43.224;27.976;2023-02-04T04:42:01;99937.00;;;1.37;97.12
5966;BME280;3009;43.224;27.976;2023-02-04T04:44:29;99937.88;;;1.48;96.86
5966;BME280;3009;43.224;27.976;2023-02-04T04:46:57;99930.72;;;1.49;96.52
5966;BME280;3009;43.224;27.976;2023-02-04T04:49:26;99930.47;;;1.55;96.82
5966;BME280;3009;43.224;27.976;2023-02-04T04:51:54;99930.78;;;1.59;96.33
5966;BME280;3009;43.224;27.976;2023-02-04T04:54:22;99931.03;;;1.57;96.54
5966;BME280;3009;43.224;27.976;2023-02-04T04:56:51;99929.19;;;1.58;96.63
5966;BME280;3009;43.224;27.976;2023-02-04T04:59:20;99930.00;;;1.64;96.40
5966;BME280;3009;43.224;27.976;2023-02-04T05:01:48;99928.97;;;1.65;96.29
5966;BME280;3009;43.224;27.976;2023-02-04T05:04:16;99927.66;;;1.72;96.12
5966;BME280;3009;43.224;27.976;2023-02-04T05:06:44;99927.56;;;1.57;96.56
5966;BME280;3009;43.224;27.976;2023-02-04T05:09:12;99923.94;;;1.63;97.03
5966;BME280;3009;43.224;27.976;2023-02-04T05:11:43;99917.81;;;1.63;97.24
5966;BME280;3009;43.224;27.976;2023-02-04T05:14:12;99921.28;;;1.63;97.51
5966;BME280;3009;43.224;27.976;2023-02-04T05:16:40;99928.44;;;1.68;97.52
5966;BME280;3009;43.224;27.976;2023-02-04T05:19:09;99929.97;;;1.58;97.62
5966;BME280;3009;43.224;27.976;2023-02-04T05:21:37;99919.69;;;1.62;97.94
5966;BME280;3009;43.224;27.976;2023-02-04T05:24:05;99916.00;;;1.63;98.12
5966;BME280;3009;43.224;27.976;2023-02-04T05:26:34;99918.34;;;1.59;98.41
5966;BME280;3009;43.224;27.976;2023-02-04T05:29:03;99919.41;;;1.58;98.58
5966;BME280;3009;43.224;27.976;2023-02-04T05:31:33;99920.72;;;1.56;99.02
5966;BME280;3009;43.224;27.976;2023-02-04T05:34:01;99910.72;;;1.63;98.92
5966;BME280;3009;43.224;27.976;2023-02-04T05:36:29;99915.19;;;1.57;98.94
5966;BME280;3009;43.224;27.976;2023-02-04T05:38:58;99906.16;;;1.53;98.94
5966;BME280;3009;43.224;27.976;2023-02-04T05:41:26;99906.16;;;1.53;100.00
5966;BME280;3009;43.224;27.976;2023-02-04T05:43:54;99916.69;;;1.43;100.00
5966;BME280;3009;43.224;27.976;2023-02-04T05:46:22;99913.28;;;1.48;100.00
5966;BME280;3009;43.224;27.976;2023-02-04T05:48:52;99905.34;;;1.48;100.00
5966;BME280;3009;43.224;27.976;2023-02-04T05:51:20;99911.47;;;1.53;100.00
5966;BME280;3009;43.224;27.976;2023-02-04T05:53:49;99907.75;;;1.49;100.00
5966;BME280;3009;43.224;27.976;2023-02-04T05:56:18;99911.72;;;1.47;100.00
5966;BME280;3009;43.224;27.976;2023-02-04T05:58:46;99906.94;;;1.49;100.00
5966;BME280;3009;43.224;27.976;2023-02-04T06:01:14;99907.22;;;1.47;100.00
5966;BME280;3009;43.224;27.976;2023-02-04T06:03:42;99911.66;;;1.41;100.00
5966;BME280;3009;43.224;27.976;2023-02-04T06:06:12;99910.41;;;1.54;100.00
5966;BME280;3009;43.224;27.976;2023-02-04T06:08:40;99905.09;;;1.39;100.00
5966;BME280;3009;43.224;27.976;2023-02-04T06:11:08;99907.16;;;1.37;100.00
5966;BME280;3009;43.224;27.976;2023-02-04T06:13:37;99900.06;;;1.42;100.00
5966;BME280;3009;43.224;27.976;2023-02-04T06:16:06;99908.78;;;1.43;100.00
5966;BME280;3009;43.224;27.976;2023-02-04T06:18:34;99904.50;;;1.32;100.00
5966;BME280;3009;43.224;27.976;2023-02-04T06:21:03;99906.91;;;1.33;100.00
5966;BME280;3009;43.224;27.976;2023-02-04T06:23:32;99906.84;;;1.28;100.00
5966;BME280;3009;43.224;27.976;2023-02-04T06:26:01;99905.09;;;1.44;100.00
5966;BME280;3009;43.224;27.976;2023-02-04T06:28:29;99904.00;;;1.35;100.00
5966;BME280;3009;43.224;27.976;2023-02-04T06:30:57;99895.28;;;1.39;100.00
5966;BME280;3009;43.224;27.976;2023-02-04T06:33:26;99896.09;;;1.40;100.00
5966;BME280;3009;43.224;27.976;2023-02-04T06:35:54;99892.69;;;1.50;100.00
5966;BME280;3009;43.224;27.976;2023-02-04T06:38:22;99894.53;;;1.49;100.00
5966;BME280;3009;43.224;27.976;2023-02-04T06:40:52;99902.44;;;1.44;100.00
5966;BME280;3009;43.224;27.976;2023-02-04T06:43:20;99892.97;;;1.48;100.00
5966;BME280;3009;43.224;27.976;2023-02-04T06:45:51;99894.81;;;1.53;100.00
5966;BME280;3009;43.224;27.976;2023-02-04T06:48:19;99892.69;;;1.55;100.00
5966;BME280;3009;43.224;27.976;2023-02-04T06:50:47;99892.66;;;1.39;100.00
5966;BME280;3009;43.224;27.976;2023-02-04T06:53:15;99889.81;;;1.56;100.00
5966;BME280;3009;43.224;27.976;2023-02-04T06:55:43;99894.25;;;1.46;100.00
5966;BME280;3009;43.224;27.976;2023-02-04T06:58:13;99884.78;;;1.50;100.00
5966;BME280;3009;43.224;27.976;2023-02-04T07:00:41;99882.91;;;1.55;100.00
5966;BME280;3009;43.224;27.976;2023-02-04T07:03:09;99886.63;;;1.54;100.00
5966;BME280;3009;43.224;27.976;2023-02-04T07:05:38;99880.25;;;1.45;100.00
5966;BME280;3009;43.224;27.976;2023-02-04T07:08:06;99879.19;;;1.46;100.00
5966;BME280;3009;43.224;27.976;2023-02-04T07:10:34;99880.78;;;1.52;100.00
5966;BME280;3009;43.224;27.976;2023-02-04T07:13:02;99876.06;;;1.54;100.00
5966;BME280;3009;43.224;27.976;2023-02-04T07:15:32;99869.22;;;1.64;100.00
5966;BME280;3009;43.224;27.976;2023-02-04T07:18:01;99868.69;;;1.62;100.00
5966;BME280;3009;43.224;27.976;2023-02-04T07:20:29;99871.31;;;1.51;100.00
5966;BME280;3009;43.224;27.976;2023-02-04T07:22:57;99872.09;;;1.52;100.00
5966;BME280;3009;43.224;27.976;2023-02-04T07:25:26;99867.63;;;1.63;100.00
5966;BME280;3009;43.224;27.976;2023-02-04T07:27:54;99860.00;;;1.82;100.00
5966;BME280;3009;43.224;27.976;2023-02-04T07:30:25;99863.47;;;1.87;100.00
5966;BME280;3009;43.224;27.976;2023-02-04T07:32:54;99853.66;;;1.93;100.00
5966;BME280;3009;43.224;27.976;2023-02-04T07:35:22;99861.38;;;2.10;100.00
5966;BME280;3009;43.224;27.976;2023-02-04T07:37:50;99860.03;;;2.23;100.00
5966;BME280;3009;43.224;27.976;2023-02-04T07:40:19;99861.63;;;2.24;100.00
5966;BME280;3009;43.224;27.976;2023-02-04T07:42:47;99855.81;;;2.17;100.00
5966;BME280;3009;43.224;27.976;2023-02-04T07:45:15;99845.50;;;2.10;100.00
5966;BME280;3009;43.224;27.976;2023-02-04T07:47:44;99851.84;;;2.24;100.00
5966;BME280;3009;43.224;27.976;2023-02-04T07:50:14;99850.22;;;2.23;100.00
5966;BME280;3009;43.224;27.976;2023-02-04T07:52:43;99855.00;;;2.26;100.00
5966;BME280;3009;43.224;27.976;2023-02-04T07:55:12;99849.19;;;2.45;100.00
5966;BME280;3009;43.224;27.976;2023-02-04T07:57:40;99848.09;;;2.56;100.00
5966;BME280;3009;43.224;27.976;2023-02-04T08:00:09;99842.78;;;2.72;100.00
5966;BME280;3009;43.224;27.976;2023-02-04T08:02:39;99836.41;;;2.73;100.00
5966;BME280;3009;43.224;27.976;2023-02-04T08:05:08;99844.38;;;2.73;100.00
5966;BME280;3009;43.224;27.976;2023-02-04T08:07:39;99844.91;;;2.70;100.00
5966;BME280;3009;43.224;27.976;2023-02-04T08:10:08;99846.16;;;2.93;100.00
5966;BME280;3009;43.224;27.976;2023-02-04T08:12:37;99837.97;;;2.89;100.00
5966;BME280;3009;43.224;27.976;2023-02-04T08:15:06;99837.69;;;2.91;100.00
5966;BME280;3009;43.224;27.976;2023-02-04T08:17:34;99835.31;;;2.89;100.00
5966;BME280;3009;43.224;27.976;2023-02-04T08:20:03;99828.16;;;2.95;100.00
5966;BME280;3009;43.224;27.976;2023-02-04T08:22:32;99831.63;;;2.90;100.00
5966;BME280;3009;43.224;27.976;2023-02-04T08:25:03;99831.34;;;2.87;100.00
5966;BME280;3009;43.224;27.976;2023-02-04T08:27:32;99827.34;;;2.94;100.00
5966;BME280;3009;43.224;27.976;2023-02-04T08:30:00;99821.78;;;2.96;100.00
5966;BME280;3009;43.224;27.976;2023-02-04T08:32:28;99816.47;;;3.01;100.00
5966;BME280;3009;43.224;27.976;2023-02-04T08:34:57;99819.88;;;3.12;100.00
5966;BME280;3009;43.224;27.976;2023-02-04T08:37:26;99816.66;;;3.20;100.00
5966;BME280;3009;43.224;27.976;2023-02-04T08:39:54;99824.00;;;3.33;100.00
5966;BME280;3009;43.224;27.976;2023-02-04T08:42:24;99816.56;;;3.41;100.00
5966;BME280;3009;43.224;27.976;2023-02-04T08:44:52;99824.94;;;3.58;100.00
5966;BME280;3009;43.224;27.976;2023-02-04T08:47:21;99826.53;;;3.59;100.00
5966;BME280;3009;43.224;27.976;2023-02-04T08:49:49;99826.19;;;3.71;99.62
5966;BME280;3009;43.224;27.976;2023-02-04T08:52:17;99826.72;;;3.73;98.87
5966;BME280;3009;43.224;27.976;2023-02-04T08:54:45;99812.69;;;3.67;98.94
5966;BME280;3009;43.224;27.976;2023-02-04T08:57:13;99821.19;;;3.64;98.82
5966;BME280;3009;43.224;27.976;2023-02-04T08:59:43;99825.78;;;3.48;99.58
5966;BME280;3009;43.224;27.976;2023-02-04T09:02:13;99817.84;;;3.48;100.00
5966;BME280;3009;43.224;27.976;2023-02-04T09:04:41;99817.00;;;3.58;100.00
5966;BME280;3009;43.224;27.976;2023-02-04T09:07:09;99831.31;;;3.57;100.00
5966;BME280;3009;43.224;27.976;2023-02-04T09:09:38;99823.03;;;3.19;100.00
5966;BME280;3009;43.224;27.976;2023-02-04T09:12:07;99819.81;;;3.27;100.00
5966;BME280;3009;43.224;27.976;2023-02-04T09:14:35;99812.88;;;3.36;100.00
5966;BME280;3009;43.224;27.976;2023-02-04T09:17:05;99810.19;;;3.42;100.00
5966;BME280;3009;43.224;27.976;2023-02-04T09:19:33;99812.88;;;3.36;100.00
5966;BME280;3009;43.224;27.976;2023-02-04T09:22:01;99806.22;;;3.44;100.00
5966;BME280;3009;43.224;27.976;2023-02-04T09:24:29;99802.47;;;3.50;100.00
5966;BME280;3009;43.224;27.976;2023-02-04T09:26:57;99801.16;;;3.48;100.00
5966;BME280;3009;43.224;27.976;2023-02-04T09:29:26;99798.13;;;3.65;100.00
5966;BME280;3009;43.224;27.976;2023-02-04T09:31:54;99794.16;;;3.62;100.00
5966;BME280;3009;43.224;27.976;2023-02-04T09:34:23;99793.53;;;3.76;99.78
5966;BME280;3009;43.224;27.976;2023-02-04T09:36:52;99791.50;;;3.67;100.00
5966;BME280;3009;43.224;27.976;2023-02-04T09:39:20;99780.72;;;3.88;100.00
5966;BME280;3009;43.224;27.976;2023-02-04T09:41:49;99784.38;;;3.97;99.24
5966;BME280;3009;43.224;27.976;2023-02-04T09:44:21;99785.94;;;3.98;99.15
5966;BME280;3009;43.224;27.976;2023-02-04T09:46:57;99779.41;;;4.20;99.47
5966;BME280;3009;43.224;27.976;2023-02-04T09:49:27;99773.84;;;4.46;99.63
5966;BME280;3009;43.224;27.976;2023-02-04T09:51:56;99772.91;;;4.60;98.35
5966;BME280;3009;43.224;27.976;2023-02-04T09:54:24;99766.94;;;4.69;97.17
5966;BME280;3009;43.224;27.976;2023-02-04T09:56:52;99768.28;;;4.66;96.95
5966;BME280;3009;43.224;27.976;2023-02-04T09:59:22;99766.72;;;4.89;96.56
5966;BME280;3009;43.224;27.976;2023-02-04T10:01:55;99758.75;;;4.89;95.87
5966;BME280;3009;43.224;27.976;2023-02-04T10:04:24;99755.06;;;4.85;96.27
5966;BME280;3009;43.224;27.976;2023-02-04T10:06:55;99761.41;;;5.08;95.85
5966;BME280;3009;43.224;27.976;2023-02-04T10:09:24;99756.88;;;4.90;95.54
5966;BME280;3009;43.224;27.976;2023-02-04T10:11:54;99752.44;;;5.04;94.58
5966;BME280;3009;43.224;27.976;2023-02-04T10:14:23;99741.75;;;5.28;93.77
5966;BME280;3009;43.224;27.976;2023-02-04T10:16:53;99741.91;;;5.18;92.61
5966;BME280;3009;43.224;27.976;2023-02-04T10:19:26;99741.25;;;5.45;92.45
5966;BME280;3009;43.224;27.976;2023-02-04T10:21:57;99742.66;;;5.57;90.38
5966;BME280;3009;43.224;27.976;2023-02-04T10:24:27;99736.94;;;5.30;89.75
5966;BME280;3009;43.224;27.976;2023-02-04T10:27:06;99734.63;;;5.43;90.86
5966;BME280;3009;43.224;27.976;2023-02-04T10:29:35;99730.63;;;5.78;89.85
5966;BME280;3009;43.224;27.976;2023-02-04T10:32:03;99729.03;;;5.77;89.66
5966;BME280;3009;43.224;27.976;2023-02-04T10:34:33;99720.97;;;5.82;89.36
5966;BME280;3009;43.224;27.976;2023-02-04T10:37:16;99723.63;;;6.01;88.90
5966;BME280;3009;43.224;27.976;2023-02-04T10:39:45;99716.03;;;6.09;88.66
5966;BME280;3009;43.224;27.976;2023-02-04T10:42:20;99722.03;;;6.00;88.06
5966;BME280;3009;43.224;27.976;2023-02-04T10:44:49;99717.34;;;5.92;87.92
5966;BME280;3009;43.224;27.976;2023-02-04T10:47:19;99711.22;;;5.92;88.26
5966;BME280;3009;43.224;27.976;2023-02-04T10:49:54;99706.72;;;5.59;88.72
5966;BME280;3009;43.224;27.976;2023-02-04T10:52:31;99709.63;;;5.25;90.85
5966;BME280;3009;43.224;27.976;2023-02-04T10:55:03;99701.41;;;5.40;91.38
5966;BME280;3009;43.224;27.976;2023-02-04T10:57:32;99705.31;;;5.29;91.36
5966;BME280;3009;43.224;27.976;2023-02-04T11:00:04;99705.81;;;5.31;91.99
5966;BME280;3009;43.224;27.976;2023-02-04T11:02:41;99700.06;;;5.43;90.15
5966;BME280;3009;43.224;27.976;2023-02-04T11:05:13;99696.97;;;5.55;90.88
5966;BME280;3009;43.224;27.976;2023-02-04T11:07:43;99695.13;;;5.36;91.70
5966;BME280;3009;43.224;27.976;2023-02-04T11:10:14;99695.59;;;5.57;91.55
5966;BME280;3009;43.224;27.976;2023-02-04T11:12:44;99685.75;;;5.58;89.07
5966;BME280;3009;43.224;27.976;2023-02-04T11:15:36;99681.44;;;5.62;89.65
5966;BME280;3009;43.224;27.976;2023-02-04T11:18:06;99679.34;;;5.59;90.06
5966;BME280;3009;43.224;27.976;2023-02-04T11:20:35;99677.44;;;5.45;90.29
5966;BME280;3009;43.224;27.976;2023-02-04T11:23:29;99679.38;;;5.40;89.85
5966;BME280;3009;43.224;27.976;2023-02-04T11:26:07;99689.25;;;5.20;93.32
5966;BME280;3009;43.224;27.976;2023-02-04T11:28:45;99691.59;;;5.41;93.07
5966;BME280;3009;43.224;27.976;2023-02-04T11:31:26;99688.81;;;5.65;90.84
5966;BME280;3009;43.224;27.976;2023-02-04T11:34:11;99683.50;;;5.65;90.62
5966;BME280;3009;43.224;27.976;2023-02-04T11:36:54;99674.94;;;5.68;90.62
5966;BME280;3009;43.224;27.976;2023-02-04T11:39:27;99676.19;;;5.71;89.81
5966;BME280;3009;43.224;27.976;2023-02-04T11:41:57;99681.63;;;5.65;89.40
5966;BME280;3009;43.224;27.976;2023-02-04T11:44:26;99670.69;;;5.67;89.44
5966;BME280;3009;43.224;27.976;2023-02-04T11:46:55;99669.16;;;5.47;88.41
5966;BME280;3009;43.224;27.976;2023-02-04T11:49:26;99673.47;;;5.43;89.10
5966;BME280;3009;43.224;27.976;2023-02-04T11:52:03;99676.44;;;5.22;90.68
5966;BME280;3009;43.224;27.976;2023-02-04T11:54:37;99680.78;;;5.18;92.54
5966;BME280;3009;43.224;27.976;2023-02-04T11:57:05;99684.25;;;5.32;91.75
5966;BME280;3009;43.224;27.976;2023-02-04T11:59:33;99676.16;;;5.24;91.68
5966;BME280;3009;43.224;27.976;2023-02-04T12:02:13;99676.66;;;5.26;91.16
5966;BME280;3009;43.224;27.976;2023-02-04T12:04:50;99680.91;;;5.27;91.72
5966;BME280;3009;43.224;27.976;2023-02-04T12:07:26;99673.72;;;5.27;91.56
5966;BME280;3009;43.224;27.976;2023-02-04T12:09:56;99668.25;;;5.19;93.33
5966;BME280;3009;43.224;27.976;2023-02-04T12:12:27;99666.09;;;5.21;92.13
5966;BME280;3009;43.224;27.976;2023-02-04T12:14:57;99669.16;;;5.47;91.25
5966;BME280;3009;43.224;27.976;2023-02-04T12:17:25;99670.16;;;5.51;90.54
5966;BME280;3009;43.224;27.976;2023-02-04T12:19:54;99669.75;;;5.44;89.77
5966;BME280;3009;43.224;27.976;2023-02-04T12:22:22;99661.78;;;5.44;90.38
5966;BME280;3009;43.224;27.976;2023-02-04T12:24:50;99672.66;;;5.28;91.70
5966;BME280;3009;43.224;27.976;2023-02-04T12:27:20;99672.41;;;5.25;91.17
5966;BME280;3009;43.224;27.976;2023-02-04T12:29:48;99676.91;;;5.10;92.44
5966;BME280;3009;43.224;27.976;2023-02-04T12:32:16;99675.59;;;4.89;93.92
5966;BME280;3009;43.224;27.976;2023-02-04T12:34:45;99667.75;;;4.78;94.91
5966;BME280;3009;43.224;27.976;2023-02-04T12:37:13;99673.75;;;4.89;94.18
5966;BME280;3009;43.224;27.976;2023-02-04T12:39:41;99668.28;;;4.81;94.04
5966;BME280;3009;43.224;27.976;2023-02-04T12:42:09;99676.75;;;4.83;93.41
5966;BME280;3009;43.224;27.976;2023-02-04T12:44:38;99683.84;;;4.87;93.27
5966;BME280;3009;43.224;27.976;2023-02-04T12:47:07;99684.88;;;4.91;92.86
5966;BME280;3009;43.224;27.976;2023-02-04T12:49:35;99684.50;;;4.98;93.05
5966;BME280;3009;43.224;27.976;2023-02-04T12:52:04;99682.50;;;4.90;93.42
5966;BME280;3009;43.224;27.976;2023-02-04T12:54:32;99682.97;;;4.92;95.81
5966;BME280;3009;43.224;27.976;2023-02-04T12:57:00;99689.97;;;4.88;94.95
5966;BME280;3009;43.224;27.976;2023-02-04T12:59:28;99690.75;;;4.88;93.84
5966;BME280;3009;43.224;27.976;2023-02-04T13:01:58;99700.47;;;4.74;92.88
5966;BME280;3009;43.224;27.976;2023-02-04T13:04:26;99693.78;;;4.82;94.27
5966;BME280;3009;43.224;27.976;2023-02-04T13:06:55;99691.38;;;4.80;95.04
5966;BME280;3009;43.224;27.976;2023-02-04T13:09:23;99696.44;;;4.82;94.60
5966;BME280;3009;43.224;27.976;2023-02-04T13:11:51;99697.34;;;4.72;93.72
5966;BME280;3009;43.224;27.976;2023-02-04T13:14:19;99706.09;;;4.72;92.90
5966;BME280;3009;43.224;27.976;2023-02-04T13:16:47;99705.97;;;4.83;92.03
5966;BME280;3009;43.224;27.976;2023-02-04T13:19:17;99696.63;;;4.85;89.35
5966;BME280;3009;43.224;27.976;2023-02-04T13:21:45;99705.59;;;4.70;88.04
5966;BME280;3009;43.224;27.976;2023-02-04T13:24:14;99706.94;;;4.68;88.54
5966;BME280;3009;43.224;27.976;2023-02-04T13:26:43;99707.31;;;4.37;91.45